Terminal Aerodrome Forecast
Issued by NWS

Home | Current Version | Previous Version | Text Only | Print | Product List | Glossary On
Versions: 1 2 3 4 5 6 7 8 9 10 11 12 13 14 15 16 17 18 19 20 21 22
000
FTUS46 KOTX 240538 CCA
TAFPUW
TAF COR
KPUW 240538Z 2406/2506 10010KT P6SM -RA SCT030 OVC040
     FM240800 11012KT P6SM -RA BKN030 OVC050
     FM241200 15013KT P6SM -RA BKN018 OVC030
      TEMPO 2416/2418 4SM RA BR BKN009 OVC015
     FM241800 22018G26KT P6SM -SHRA SCT040 BKN060
     FM250000 24011KT P6SM SCT050 BKN150=

USA.gov is the U.S. government's official web portal to all federal, state and local government web resources and services.